createdAt,value
2022-10-18T00:00:00.749Z,101197.63
2022-10-18T00:10:02.080Z,101204.53
2022-10-18T00:20:03.394Z,101212.13
2022-10-18T00:30:04.717Z,101207.63
2022-10-18T00:40:06.044Z,101211.03
2022-10-18T00:50:07.323Z,101195.75
2022-10-18T01:00:10.126Z,101202.59
2022-10-18T01:10:11.574Z,101202.59
2022-10-18T01:20:12.933Z,101190.22
2022-10-18T01:30:14.255Z,101188.47
2022-10-18T01:40:15.547Z,101182.31
2022-10-18T01:50:16.824Z,101183.28
2022-10-18T02:00:18.142Z,101182.47
2022-10-18T02:10:19.519Z,101171.91
2022-10-18T02:20:20.869Z,101176.38
2022-10-18T02:30:22.177Z,101149.94
2022-10-18T02:40:23.468Z,101151.91
2022-10-18T02:50:24.661Z,101162.47
2022-10-18T03:00:26.076Z,101155.31
2022-10-18T03:10:27.337Z,101156.13
2022-10-18T03:20:28.618Z,101156.13
2022-10-18T03:30:29.942Z,101180.63
2022-10-18T03:50:32.372Z,101184.91
2022-10-18T04:00:33.781Z,101183.84
2022-10-18T04:10:35.087Z,101195.50
2022-10-18T04:20:36.460Z,101194.44
2022-10-18T04:30:37.842Z,101192.97
2022-10-18T04:40:39.175Z,101200.97
2022-10-18T04:50:40.709Z,101197.69
2022-10-18T05:00:42.204Z,101203.13
2022-10-18T05:10:43.589Z,101207.22
2022-10-18T05:20:44.894Z,101216.69
2022-10-18T05:30:46.235Z,101218.31
2022-10-18T05:40:47.833Z,101215.63
2022-10-18T05:50:49.143Z,101212.13
2022-10-18T06:00:50.533Z,101200.38
2022-10-18T06:10:51.798Z,101222.09
2022-10-18T06:20:53.062Z,101224.44
2022-10-18T06:30:54.363Z,101225.00
2022-10-18T06:40:55.664Z,101237.09
2022-10-18T06:50:57.083Z,101251.78
2022-10-18T07:00:58.393Z,101279.63
2022-10-18T07:10:59.682Z,101275.38
2022-10-18T07:21:00.991Z,101291.16
2022-10-18T07:31:05.176Z,101316.56
2022-10-18T07:41:07.662Z,101322.72
2022-10-18T07:51:09.239Z,101326.97
2022-10-18T08:01:10.610Z,101323.13
2022-10-18T08:11:12.005Z,101321.88
2022-10-18T08:21:13.318Z,101324.66
2022-10-18T08:31:14.719Z,101335.72
2022-10-18T08:41:16.059Z,101328.47
2022-10-18T08:51:17.536Z,101337.91
2022-10-18T09:01:18.823Z,101335.22
2022-10-18T09:11:20.191Z,101324.00
2022-10-18T09:21:22.967Z,101333.25
2022-10-18T09:31:24.305Z,101349.34
2022-10-18T09:41:25.688Z,101359.44
2022-10-18T09:51:27.072Z,101350.34
2022-10-18T10:01:28.454Z,101361.69
2022-10-18T10:11:29.791Z,101369.44
2022-10-18T10:21:31.152Z,101374.19
2022-10-18T10:31:32.475Z,101367.69
2022-10-18T10:41:34.099Z,101375.59
2022-10-18T10:51:36.532Z,101383.13
2022-10-18T11:01:37.925Z,101378.28
2022-10-18T11:11:39.227Z,101371.88
2022-10-18T11:21:40.551Z,101362.03
2022-10-18T11:31:41.880Z,101355.28
2022-10-18T11:41:43.262Z,101348.59
2022-10-18T11:52:03.548Z,101347.59
2022-10-18T12:02:06.056Z,101341.44
2022-10-18T12:12:07.353Z,101335.19
2022-10-18T12:22:08.664Z,101331.88
2022-10-18T12:32:09.961Z,101316.78
2022-10-18T12:42:11.290Z,101321.63
2022-10-18T12:52:12.588Z,101306.41
2022-10-18T13:02:13.924Z,101339.06
2022-10-18T13:12:15.134Z,101319.78
2022-10-18T13:22:16.454Z,101299.41
2022-10-18T13:42:18.990Z,101304.53
2022-10-18T13:52:20.304Z,101317.19
2022-10-18T14:02:36.410Z,101299.56
2022-10-18T14:12:42.984Z,101309.00
2022-10-18T14:22:44.198Z,101316.44
2022-10-18T14:32:45.526Z,101323.75
2022-10-18T14:42:46.814Z,101325.97
2022-10-18T14:52:48.047Z,101322.63
2022-10-18T15:02:49.384Z,101332.34
2022-10-18T15:13:08.667Z,101324.84
2022-10-18T15:23:10.933Z,101331.13
2022-10-18T15:33:12.229Z,101326.78
2022-10-18T15:43:13.633Z,101327.31
2022-10-18T15:53:14.972Z,101329.94
2022-10-18T16:03:16.330Z,101339.25
2022-10-18T16:13:18.903Z,101329.34
2022-10-18T16:23:20.307Z,101340.16
2022-10-18T16:33:21.815Z,101330.72
2022-10-18T16:43:23.384Z,101349.50
2022-10-18T16:53:25.060Z,101351.59
2022-10-18T17:03:26.371Z,101356.75
2022-10-18T17:13:27.630Z,101366.75
2022-10-18T17:23:28.991Z,101381.72
2022-10-18T17:33:30.243Z,101379.38
2022-10-18T17:43:31.622Z,101384.59
2022-10-18T17:53:34.955Z,101396.06
2022-10-18T18:03:36.301Z,101396.38
2022-10-18T18:13:37.524Z,101402.72
2022-10-18T18:23:38.816Z,101407.31
2022-10-18T18:44:25.393Z,101391.78
2022-10-18T18:54:28.681Z,101403.38
2022-10-18T19:04:30.295Z,101406.19
2022-10-18T19:14:31.609Z,101397.53
2022-10-18T19:24:33.243Z,101395.25
2022-10-18T19:34:34.596Z,101389.19
2022-10-18T19:44:36.201Z,101387.25
2022-10-18T19:54:37.542Z,101391.13
2022-10-18T20:04:38.875Z,101384.41
2022-10-18T20:14:40.236Z,101379.88
2022-10-18T20:24:41.593Z,101381.28
2022-10-18T20:34:42.855Z,101391.34
2022-10-18T20:44:44.359Z,101396.50
2022-10-18T20:54:45.706Z,101388.38
2022-10-18T21:04:47.096Z,101392.03
2022-10-18T21:14:48.339Z,101387.78
2022-10-18T21:24:49.705Z,101373.16
2022-10-18T21:34:51.031Z,101361.22
2022-10-18T21:44:52.380Z,101364.81
2022-10-18T21:54:54.081Z,101365.81
2022-10-18T22:04:55.418Z,101354.56
2022-10-18T22:14:56.757Z,101349.56
2022-10-18T22:24:58.214Z,101348.94
2022-10-18T22:34:59.568Z,101336.91
2022-10-18T22:45:00.996Z,101331.81
2022-10-18T22:55:02.380Z,101329.97
2022-10-18T23:05:03.712Z,101332.56
2022-10-18T23:15:05.032Z,101325.72
2022-10-18T23:25:06.425Z,101330.28
2022-10-18T23:35:07.766Z,101334.88
2022-10-18T23:45:09.210Z,101335.00
2022-10-18T23:55:10.525Z,101336.44
